Terminal Aerodrome Forecast
Issued by NWS Greer, SC

Home | Current Version | Previous Version | Text Only | Print | Product List | Glossary On
Versions: 1 2 3 4 5 6 7 8 9 10 11 12 13 14 15 16 17 18 19 20 21 22 23 24 25 26 27 28 29 30 31 32 33 34 35 36 37 38 39 40 41 42 43 44 45 46 47 48
000
FTUS42 KGSP 292330
TAFAVL
TAF
KAVL 292330Z 3000/3024 16003KT P6SM SCT035 BKN200
     FM300500 14004KT P6SM BKN020
     FM300800 14004KT 4SM BR BKN003
     FM301000 VRB02KT 1/2SM FG OVC003
     FM301400 14003KT P6SM SCT008
     FM301800 16006KT P6SM SCT020 PROB30 3020/3024 4SM -TSRA
      BKN030CB=

USA.gov is the U.S. government's official web portal to all federal, state and local government web resources and services.